Sebewaing, Michigan
Current Conditions -  °F | °C
As of 8:45 AM on Monday 24 Nov 2014 (Local Time) from KCFS Reporting Station
Overcast Overcast  
Wind Chill: 11°   Ceiling: 1200
Heat Index: 11°   Visibility: 4mi
Dew Point: 10°   Wind: 14mph
Humidity: 94%   Direction: 190°S
Pressure: 29.07"   Gusts: NA
Location:  43.73°N, 83.45°W
Report Text: KCFS 241345Z AUTO 19012KT 4SM OVC012 11/10 A2907 RMK AO2
Loading
Personal Weather Stations






























Interactive Weather Map New forecast layout! Learn more

10-Day Weather Forecast

Advertisements
Track Severe Weather on mobile